Time;durP1;ratioP1;P1;durP2;ratioP2;P2;SDS_P1;SDS_P2;PMS_P1;PMS_P2;Temp;Humidity;BMP_temperature;BMP_pressure;BME280_temperature;BME280_humidity;BME280_pressure;Samples;Min_cycle;Max_cycle;Signal;HPM_P1;HPM_P2
2021/06/01 00:02:09;;;;;;;3.67;2.50;;;;;;;9.83;66.11;99021.81;4990356;28;20050;-68
2021/06/01 00:04:34;;;;;;;6.03;2.60;;;;;;;9.78;66.63;99024.25;4990813;28;20146;-68
2021/06/01 00:07:00;;;;;;;2.78;2.08;;;;;;;9.62;66.55;99009.13;4985211;28;20125;-65
2021/06/01 00:09:25;;;;;;;6.03;2.22;;;;;;;9.60;66.57;99011.19;4988281;28;20061;-67
2021/06/01 00:11:50;;;;;;;4.13;2.20;;;;;;;9.57;67.27;99022.38;4991244;28;20089;-68
2021/06/01 00:14:17;;;;;;;3.85;2.40;;;;;;;9.61;67.38;99012.84;4990601;28;20068;-68
2021/06/01 00:16:43;;;;;;;5.63;2.50;;;;;;;9.59;67.02;99027.59;4990070;28;20025;-67
2021/06/01 00:19:09;;;;;;;4.78;2.40;;;;;;;9.49;66.71;99021.66;4989207;28;20034;-67
2021/06/01 00:21:35;;;;;;;3.75;2.45;;;;;;;9.53;67.31;99025.63;4973250;28;20042;-68
2021/06/01 00:24:02;;;;;;;3.55;2.22;;;;;;;9.46;67.40;99025.59;4990478;28;20038;-68
2021/06/01 00:26:27;;;;;;;6.50;2.42;;;;;;;9.38;67.90;99026.53;4989711;28;20029;-68
2021/06/01 00:28:52;;;;;;;4.03;2.53;;;;;;;9.51;68.12;99020.44;4988876;28;20026;-68
2021/06/01 00:31:18;;;;;;;3.20;2.20;;;;;;;9.31;67.54;99016.69;4990392;28;20076;-66
2021/06/01 00:33:43;;;;;;;2.92;2.10;;;;;;;9.21;68.21;99023.19;4982667;28;20035;-68
2021/06/01 00:36:08;;;;;;;3.55;2.30;;;;;;;9.12;69.01;99013.56;4983367;28;20029;-68
2021/06/01 00:38:35;;;;;;;3.20;2.33;;;;;;;9.09;69.26;99019.34;4985428;28;20018;-67
2021/06/01 00:41:00;;;;;;;2.88;1.90;;;;;;;9.02;68.90;99023.81;4973595;28;20039;-67
2021/06/01 00:43:26;;;;;;;3.80;2.40;;;;;;;8.91;69.25;99027.00;4990190;28;20041;-67
2021/06/01 00:45:51;;;;;;;5.28;2.45;;;;;;;8.91;69.62;99025.13;4989910;28;20026;-67
2021/06/01 00:48:17;;;;;;;3.00;2.17;;;;;;;8.95;69.84;99015.59;4988122;28;20034;-67
2021/06/01 00:50:42;;;;;;;3.50;2.20;;;;;;;9.00;69.43;99015.88;4983144;28;20093;-67
2021/06/01 00:53:07;;;;;;;5.55;2.20;;;;;;;9.03;69.28;99021.94;4984399;28;20608;-68
2021/06/01 00:55:33;;;;;;;3.60;2.00;;;;;;;8.99;69.48;99014.22;4988999;28;20399;-68
2021/06/01 00:57:59;;;;;;;3.83;2.00;;;;;;;8.89;69.26;99002.88;4989467;28;20086;-67
2021/06/01 01:00:43;;;;;;;3.88;2.17;;;;;;;8.83;69.65;99025.22;4990242;28;20073;-68
2021/06/01 01:03:09;;;;;;;3.25;2.30;;;;;;;8.58;69.71;99000.38;4989024;28;20105;-67
2021/06/01 01:05:37;;;;;;;6.38;2.88;;;;;;;8.68;70.76;99018.97;4989908;28;20065;-68
2021/06/01 01:08:21;;;;;;;2.90;2.40;;;;;;;8.67;70.25;99020.84;4988738;28;20038;-68
2021/06/01 01:10:49;;;;;;;2.25;2.03;;;;;;;8.64;70.75;99013.09;4989594;28;20030;-67
2021/06/01 01:13:18;;;;;;;4.72;2.35;;;;;;;8.75;70.46;99001.00;4990234;28;20026;-67
2021/06/01 01:15:46;;;;;;;3.40;2.40;;;;;;;8.71;70.36;99015.91;4989243;28;20555;-68
2021/06/01 01:18:16;;;;;;;3.67;2.20;;;;;;;8.74;70.71;99016.38;4988680;28;20050;-68
2021/06/01 01:20:49;;;;;;;4.43;2.10;;;;;;;8.70;70.60;99004.28;4986896;28;20022;-67
2021/06/01 01:23:16;;;;;;;3.42;2.40;;;;;;;8.67;71.05;99010.06;4989686;28;20038;-67
2021/06/01 01:25:42;;;;;;;3.70;2.17;;;;;;;8.62;69.74;99009.78;5004608;28;20026;-68
2021/06/01 01:28:35;;;;;;;2.80;1.90;;;;;;;8.61;70.36;99009.94;4988502;28;20105;-66
2021/06/01 01:31:14;;;;;;;3.20;2.08;;;;;;;8.55;71.24;99015.06;4982827;28;20026;-68
2021/06/01 01:33:41;;;;;;;3.05;2.15;;;;;;;8.54;71.36;99010.69;4988845;28;20025;-67
2021/06/01 01:36:10;;;;;;;3.45;2.90;;;;;;;8.51;71.51;99015.63;4989843;28;20122;-67
2021/06/01 01:38:38;;;;;;;2.95;2.13;;;;;;;8.49;71.37;99005.03;4987968;28;20026;-68
2021/06/01 01:41:08;;;;;;;2.72;2.20;;;;;;;8.41;71.69;99005.13;4987333;28;20046;-66
2021/06/01 01:43:35;;;;;;;3.08;2.10;;;;;;;8.52;71.72;99003.81;4986853;28;20033;-67
2021/06/01 01:46:09;;;;;;;2.38;1.92;;;;;;;8.46;70.81;99008.09;4989424;28;20037;-68
2021/06/01 01:51:19;;;;;;;2.90;1.98;;;;;;;8.36;72.37;98994.03;4993591;28;20038;-68
2021/06/01 01:54:00;;;;;;;3.60;2.13;;;;;;;8.27;72.91;99004.03;4993382;28;20488;-68
2021/06/01 01:56:33;;;;;;;3.15;1.92;;;;;;;8.21;72.16;98999.38;4993632;28;20030;-68
2021/06/01 01:58:59;;;;;;;2.90;2.03;;;;;;;8.19;72.64;99005.97;4992892;28;20026;-68
2021/06/01 02:01:25;;;;;;;3.15;2.08;;;;;;;8.08;73.10;99000.00;4987960;28;20495;-68
2021/06/01 02:03:51;;;;;;;3.67;2.45;;;;;;;8.08;72.47;99008.09;4993477;28;20038;-68
2021/06/01 02:06:17;;;;;;;2.90;2.17;;;;;;;8.11;72.06;99006.88;4992919;28;20022;-68
2021/06/01 02:08:43;;;;;;;3.03;2.00;;;;;;;8.20;72.09;99008.50;4992026;28;20034;-67
2021/06/01 02:11:08;;;;;;;3.30;2.17;;;;;;;8.22;72.56;99011.81;4992321;28;20022;-68
2021/06/01 02:14:04;;;;;;;3.60;2.40;;;;;;;8.23;72.56;99001.91;4993562;28;20504;-68
2021/06/01 02:16:41;;;;;;;5.80;2.30;;;;;;;8.16;72.34;99001.78;4991481;28;20088;-68
2021/06/01 02:19:08;;;;;;;3.83;2.30;;;;;;;8.10;72.30;99003.34;4992107;28;20035;-66
2021/06/01 02:22:04;;;;;;;3.75;2.40;;;;;;;8.06;73.61;99009.28;4992220;28;20041;-68
2021/06/01 02:24:32;;;;;;;3.00;2.30;;;;;;;7.94;73.37;99005.34;4973732;28;20027;-68
2021/06/01 02:27:13;;;;;;;3.50;2.25;;;;;;;7.91;74.18;98995.75;4973295;28;20183;-68
2021/06/01 02:30:04;;;;;;;4.97;2.35;;;;;;;7.83;74.22;99012.88;4980470;28;20427;-68
2021/06/01 02:32:34;;;;;;;3.72;2.50;;;;;;;7.88;73.73;99002.34;5002508;28;20095;-68
2021/06/01 02:35:04;;;;;;;3.13;2.05;;;;;;;8.00;73.59;99008.16;4994459;28;20610;-69
2021/06/01 02:37:31;;;;;;;3.28;2.13;;;;;;;7.92;73.66;98985.84;4991246;28;20038;-67
2021/06/01 02:39:56;;;;;;;3.58;2.33;;;;;;;8.05;73.49;98999.53;4992217;28;20076;-68
2021/06/01 02:42:23;;;;;;;5.07;2.50;;;;;;;7.95;73.21;98988.19;4988815;28;20076;-68
2021/06/01 02:44:50;;;;;;;3.40;2.28;;;;;;;8.05;73.50;99010.31;4984993;28;20030;-68
2021/06/01 02:47:15;;;;;;;5.45;2.50;;;;;;;7.98;73.50;99004.81;4990758;28;20548;-68
2021/06/01 02:49:41;;;;;;;3.30;2.42;;;;;;;7.92;74.18;99002.84;4989552;28;20045;-68
2021/06/01 02:52:07;;;;;;;3.85;2.58;;;;;;;7.82;74.55;99005.78;4992559;28;20109;-68
2021/06/01 02:54:32;;;;;;;6.03;2.58;;;;;;;7.77;74.77;99012.72;4992710;28;20041;-68
2021/06/01 02:56:58;;;;;;;3.45;2.55;;;;;;;7.64;74.64;99008.78;4990542;28;20030;-68
2021/06/01 02:59:23;;;;;;;4.25;2.63;;;;;;;7.75;74.70;99004.81;4991287;28;20033;-67
2021/06/01 03:01:49;;;;;;;2.85;2.00;;;;;;;7.75;74.48;99001.28;4990507;28;20157;-68
2021/06/01 03:04:15;;;;;;;3.38;2.40;;;;;;;7.82;74.37;99011.16;4992743;28;20037;-68
2021/06/01 03:06:43;;;;;;;3.30;2.28;;;;;;;7.74;74.14;99005.00;4991084;28;20057;-67
2021/06/01 03:09:08;;;;;;;4.05;2.40;;;;;;;7.81;74.18;98998.72;4989551;28;20030;-67
2021/06/01 03:11:33;;;;;;;3.28;2.25;;;;;;;7.81;74.16;99008.66;4975242;28;20854;-67
2021/06/01 03:13:59;;;;;;;3.05;2.58;;;;;;;7.78;74.18;99011.69;4990310;28;20100;-68
2021/06/01 03:16:24;;;;;;;3.63;2.80;;;;;;;7.71;74.25;99010.78;4991644;28;20418;-67
2021/06/01 03:18:50;;;;;;;3.33;2.50;;;;;;;7.76;74.64;99006.50;4986853;28;20034;-68
2021/06/01 03:21:15;;;;;;;3.58;2.50;;;;;;;7.64;74.33;99011.47;4991899;28;20042;-68
2021/06/01 03:23:42;;;;;;;3.17;2.67;;;;;;;7.63;74.53;99004.41;4991910;28;20484;-68
2021/06/01 03:26:08;;;;;;;3.72;2.35;;;;;;;7.81;74.06;99008.66;4991124;28;20026;-67
2021/06/01 03:28:33;;;;;;;4.20;2.70;;;;;;;7.86;73.98;99011.66;4990661;28;20034;-68
2021/06/01 03:30:59;;;;;;;6.07;2.50;;;;;;;7.74;73.80;99021.19;4991866;28;20034;-68
2021/06/01 03:33:27;;;;;;;3.42;2.70;;;;;;;7.60;74.19;99007.47;4976545;28;20050;-68
2021/06/01 03:35:53;;;;;;;3.65;2.22;;;;;;;7.52;74.97;99010.22;4975994;28;20403;-68
2021/06/01 03:38:18;;;;;;;3.15;2.53;;;;;;;7.36;74.92;99005.78;4990289;28;20034;-68
2021/06/01 03:40:43;;;;;;;3.30;2.45;;;;;;;7.38;74.80;98997.53;4991729;28;20044;-68
2021/06/01 03:43:09;;;;;;;4.03;2.72;;;;;;;7.37;75.73;99012.00;4991056;28;20388;-68
2021/06/01 03:45:34;;;;;;;3.70;2.50;;;;;;;7.44;75.49;98994.09;4988848;28;20034;-68
2021/06/01 03:48:00;;;;;;;6.82;3.67;;;;;;;7.60;74.46;99007.47;4990981;28;20034;-68
2021/06/01 03:50:25;;;;;;;4.03;2.72;;;;;;;7.62;74.79;99004.59;4989354;28;20073;-68
2021/06/01 03:52:51;;;;;;;6.03;2.83;;;;;;;7.71;74.45;99002.69;4983508;28;20817;-68
2021/06/01 03:55:18;;;;;;;4.07;2.75;;;;;;;7.75;74.22;99010.19;4990932;28;20596;-68
2021/06/01 03:57:48;;;;;;;4.32;2.80;;;;;;;7.75;74.52;99006.69;5004000;28;20175;-68
2021/06/01 04:00:15;;;;;;;6.95;2.88;;;;;;;7.77;74.02;99005.47;4982244;28;20365;-68
2021/06/01 04:02:41;;;;;;;3.72;2.70;;;;;;;7.80;74.21;99004.28;4987310;28;20057;-68
2021/06/01 04:05:07;;;;;;;3.92;2.88;;;;;;;7.83;73.06;99004.78;4988358;28;20488;-68
2021/06/01 04:07:32;;;;;;;4.18;2.50;;;;;;;7.84;73.03;99008.31;4990619;28;20038;-68
2021/06/01 04:09:57;;;;;;;5.57;3.08;;;;;;;7.84;73.69;98997.53;4990593;28;20026;-68
2021/06/01 04:12:23;;;;;;;3.53;2.88;;;;;;;7.97;73.84;98992.38;4990101;28;20481;-68
2021/06/01 04:14:48;;;;;;;4.93;3.08;;;;;;;8.08;73.71;99000.00;4985873;28;20030;-68
2021/06/01 04:17:13;;;;;;;3.45;2.65;;;;;;;8.15;73.25;99002.81;4990472;28;20028;-68
2021/06/01 04:19:39;;;;;;;4.50;2.78;;;;;;;8.20;73.28;99002.25;4990003;28;20752;-68
2021/06/01 04:22:04;;;;;;;3.70;2.58;;;;;;;8.36;73.10;99007.50;4988396;28;20045;-68
2021/06/01 04:24:29;;;;;;;3.28;2.67;;;;;;;8.51;72.40;99004.81;4990628;28;20022;-68
2021/06/01 04:26:56;;;;;;;5.50;2.63;;;;;;;8.62;72.84;99006.22;4975414;28;20034;-68
2021/06/01 04:29:22;;;;;;;4.20;2.45;;;;;;;8.65;71.86;99000.47;4984979;28;20041;-68
2021/06/01 04:31:47;;;;;;;3.85;2.67;;;;;;;8.70;71.49;99009.69;4991248;28;20026;-68
2021/06/01 04:34:13;;;;;;;3.92;2.78;;;;;;;8.71;71.16;99015.91;4989823;28;20777;-68
2021/06/01 04:36:38;;;;;;;3.72;2.58;;;;;;;8.80;70.48;99013.94;4989996;28;20038;-68
2021/06/01 04:39:04;;;;;;;3.60;2.60;;;;;;;8.91;70.46;99017.03;4987628;28;20161;-68
2021/06/01 04:41:29;;;;;;;3.92;2.65;;;;;;;9.03;70.02;99013.84;4989173;28;20117;-68
2021/06/01 04:43:55;;;;;;;4.00;2.28;;;;;;;9.25;69.41;99003.91;4989478;28;20049;-68
2021/06/01 04:46:20;;;;;;;3.90;2.50;;;;;;;9.48;69.05;99011.88;4989711;28;20022;-68
2021/06/01 04:48:45;;;;;;;6.45;3.03;;;;;;;9.19;68.92;99002.81;4990628;28;20376;-68
2021/06/01 04:51:17;;;;;;;4.72;3.15;;;;;;;9.00;70.12;99007.78;4989723;28;20034;-68
2021/06/01 04:53:54;;;;;;;4.68;3.22;;;;;;;8.84;71.07;99004.47;4974815;28;20166;-68
2021/06/01 04:56:20;;;;;;;5.50;3.17;;;;;;;8.86;70.67;99000.56;4981012;28;20503;-68
2021/06/01 04:58:45;;;;;;;5.10;3.53;;;;;;;8.91;71.10;98992.75;4988511;28;22252;-68
2021/06/01 05:01:11;;;;;;;4.75;3.55;;;;;;;9.00;71.68;98996.16;4990039;28;20034;-69
2021/06/01 05:03:37;;;;;;;5.82;3.30;;;;;;;8.99;71.56;99000.72;4989807;28;20319;-68
2021/06/01 05:06:03;;;;;;;4.38;3.00;;;;;;;9.14;71.38;98999.84;4990505;28;20109;-68
2021/06/01 05:08:28;;;;;;;4.95;3.28;;;;;;;9.40;70.82;98988.53;4982028;28;20042;-68
2021/06/01 05:10:54;;;;;;;3.47;2.67;;;;;;;9.71;69.62;98990.91;4988730;28;20060;-68
2021/06/01 05:13:19;;;;;;;8.38;3.30;;;;;;;10.03;68.68;98988.69;4990083;28;20030;-68
2021/06/01 05:15:45;;;;;;;7.97;3.58;;;;;;;10.11;68.66;98996.66;4988993;28;20041;-68
2021/06/01 05:18:13;;;;;;;5.60;3.10;;;;;;;10.31;68.24;98991.47;4989228;28;20365;-68
2021/06/01 05:20:38;;;;;;;5.38;3.00;;;;;;;10.50;67.57;98990.75;4984182;28;20102;-68
2021/06/01 05:23:04;;;;;;;5.13;3.08;;;;;;;10.72;67.22;98996.94;4985164;28;20114;-68
2021/06/01 05:25:29;;;;;;;5.72;2.67;;;;;;;11.01;66.59;98986.88;4988252;28;20369;-68
2021/06/01 05:27:54;;;;;;;4.75;3.38;;;;;;;11.14;65.55;98991.50;4987341;28;20077;-68
2021/06/01 05:30:23;;;;;;;4.20;2.78;;;;;;;11.44;65.01;98992.00;4989174;28;20026;-68
2021/06/01 05:35:26;;;;;;;5.35;3.38;;;;;;;11.98;64.25;98993.81;4981086;28;20496;-68
2021/06/01 05:37:52;;;;;;;7.45;4.30;;;;;;;12.08;63.63;98985.28;4984287;28;20081;-75
2021/06/01 05:40:18;;;;;;;6.28;3.35;;;;;;;12.33;63.39;98990.03;4995917;28;20022;-74
2021/06/01 05:42:43;;;;;;;3.85;2.65;;;;;;;12.53;62.39;98977.28;4999674;28;20047;-72
2021/06/01 05:45:09;;;;;;;4.63;2.97;;;;;;;12.86;61.35;98985.38;4990960;28;20405;-72
2021/06/01 05:47:35;;;;;;;5.25;2.53;;;;;;;13.14;60.71;98976.88;4991349;28;20022;-75
2021/06/01 05:50:01;;;;;;;4.90;2.58;;;;;;;13.49;61.03;98979.25;4990810;28;20054;-74
2021/06/01 05:52:27;;;;;;;3.47;2.50;;;;;;;13.78;61.09;98979.69;4990732;28;20030;-73
2021/06/01 05:54:52;;;;;;;2.97;2.55;;;;;;;14.03;60.38;98983.28;4983589;28;20110;-73
2021/06/01 05:57:17;;;;;;;3.17;2.38;;;;;;;14.23;59.46;98985.84;4993087;28;20035;-73
2021/06/01 05:59:43;;;;;;;3.63;2.20;;;;;;;14.56;59.49;98984.72;4997605;28;20129;-74
2021/06/01 06:02:08;;;;;;;3.45;2.30;;;;;;;14.57;56.98;98969.22;4989443;28;20030;-73
2021/06/01 06:04:34;;;;;;;3.30;2.33;;;;;;;14.88;56.52;98984.59;4980782;28;20060;-73
2021/06/01 06:06:59;;;;;;;3.92;2.40;;;;;;;15.02;56.89;98988.00;4992323;28;20022;-76
2021/06/01 06:09:24;;;;;;;3.47;2.40;;;;;;;15.27;56.99;98979.72;4984426;28;20472;-74
2021/06/01 06:11:50;;;;;;;7.30;2.33;;;;;;;15.40;57.90;98984.16;4990457;28;20502;-73
2021/06/01 06:14:15;;;;;;;3.00;2.33;;;;;;;15.53;56.42;98976.63;4987785;28;20043;-72
2021/06/01 06:16:46;;;;;;;3.92;2.15;;;;;;;15.89;56.23;98972.16;4979711;28;20503;-74
2021/06/01 06:19:11;;;;;;;2.80;2.15;;;;;;;16.11;54.88;98971.59;5005600;28;20459;-74
2021/06/01 06:21:37;;;;;;;3.08;2.20;;;;;;;16.34;54.53;98970.78;4997933;28;20034;-73
2021/06/01 06:24:04;;;;;;;2.83;2.10;;;;;;;16.61;53.96;98962.94;4990561;28;20058;-74
2021/06/01 06:26:29;;;;;;;3.53;2.10;;;;;;;16.98;53.34;98966.28;4990497;28;20022;-74
2021/06/01 06:28:55;;;;;;;3.65;2.47;;;;;;;17.06;51.83;98965.06;4997075;28;20026;-74
2021/06/01 06:31:20;;;;;;;3.70;2.58;;;;;;;17.48;50.59;98973.00;5001821;28;20157;-70
2021/06/01 06:33:45;;;;;;;3.00;2.42;;;;;;;17.63;51.82;98975.19;4977684;28;20408;-70
2021/06/01 06:36:10;;;;;;;5.53;2.30;;;;;;;17.87;49.30;98959.53;4993231;28;20180;-70
2021/06/01 06:38:36;;;;;;;2.58;2.05;;;;;;;18.41;50.16;98973.53;4991685;28;20498;-70
2021/06/01 06:43:30;;;;;;;2.30;1.50;;;;;;;19.05;44.51;98970.38;4973191;28;20090;-71
2021/06/01 06:45:56;;;;;;;2.20;1.65;;;;;;;19.84;43.52;98966.34;4977498;28;20042;-70
2021/06/01 06:48:21;;;;;;;4.72;1.90;;;;;;;20.54;41.56;98959.81;4981937;28;20027;-71
2021/06/01 06:50:47;;;;;;;4.38;1.73;;;;;;;21.23;40.49;98966.22;4978721;28;20117;-70
2021/06/01 06:53:12;;;;;;;3.58;1.98;;;;;;;22.04;39.00;98965.63;4982602;28;20172;-70
2021/06/01 06:55:37;;;;;;;2.42;1.60;;;;;;;22.90;36.36;98957.56;4980744;28;20081;-70
2021/06/01 06:58:03;;;;;;;3.38;1.60;;;;;;;24.01;34.98;98957.31;4983533;28;20030;-70
2021/06/01 07:00:30;;;;;;;1.70;1.50;;;;;;;25.24;33.68;98958.91;4987379;28;20025;-68
2021/06/01 07:02:56;;;;;;;4.30;1.65;;;;;;;26.30;31.66;98943.78;4994202;28;20085;-68
2021/06/01 07:05:22;;;;;;;2.17;1.40;;;;;;;27.11;29.92;98947.00;4998298;28;20062;-68
2021/06/01 07:07:51;;;;;;;3.35;1.73;;;;;;;28.11;28.86;98949.84;4990736;28;20108;-68
2021/06/01 07:10:17;;;;;;;1.98;1.30;;;;;;;29.08;27.69;98943.69;4997339;28;20381;-68
2021/06/01 07:12:44;;;;;;;3.00;1.70;;;;;;;29.42;27.49;98942.97;5006449;28;20022;-68
2021/06/01 07:15:21;;;;;;;4.03;1.50;;;;;;;29.74;26.30;98935.34;4995945;28;20036;-68
2021/06/01 07:17:47;;;;;;;3.60;1.77;;;;;;;30.68;25.79;98927.19;4983291;28;20399;-68
2021/06/01 07:20:15;;;;;;;3.75;1.67;;;;;;;30.85;25.52;98922.72;4984389;28;20028;-71
2021/06/01 07:22:41;;;;;;;1.88;1.30;;;;;;;30.12;25.72;98929.06;4984954;28;20054;-68
2021/06/01 07:25:09;;;;;;;2.10;1.50;;;;;;;28.50;27.11;98931.59;4986530;28;20034;-68
2021/06/01 07:27:34;;;;;;;1.33;1.23;;;;;;;28.85;26.98;98934.56;4994610;28;20050;-68
2021/06/01 07:30:00;;;;;;;2.40;1.33;;;;;;;29.80;26.22;98934.03;4992678;28;20308;-69
2021/06/01 07:32:25;;;;;;;1.75;1.35;;;;;;;30.32;25.78;98927.63;4986677;28;20709;-68
2021/06/01 07:34:51;;;;;;;3.13;1.80;;;;;;;31.11;24.96;98926.19;4995136;28;20034;-69
2021/06/01 07:37:16;;;;;;;1.80;1.50;;;;;;;30.27;26.01;98930.56;4984023;28;20052;-69
2021/06/01 07:39:43;;;;;;;2.35;1.55;;;;;;;29.82;26.71;98925.34;4990493;28;20026;-68
2021/06/01 07:42:09;;;;;;;1.80;1.48;;;;;;;29.37;26.21;98926.41;4991356;28;20038;-69
2021/06/01 07:44:35;;;;;;;1.70;1.40;;;;;;;28.92;27.12;98922.94;4990918;28;20052;-69
2021/06/01 07:47:00;;;;;;;3.28;1.40;;;;;;;29.30;26.50;98920.47;4981084;28;20556;-69
2021/06/01 07:49:26;;;;;;;3.72;1.70;;;;;;;29.02;26.60;98917.91;4990949;28;20038;-68
2021/06/01 07:51:51;;;;;;;2.65;1.35;;;;;;;29.11;26.51;98917.13;4991030;28;20031;-69
2021/06/01 07:54:17;;;;;;;2.50;1.48;;;;;;;28.38;27.55;98923.00;4990640;28;20026;-69
2021/06/01 07:56:42;;;;;;;2.63;1.80;;;;;;;27.83;27.90;98920.50;4988036;28;20029;-67
2021/06/01 07:59:07;;;;;;;2.28;1.50;;;;;;;28.71;27.39;98906.81;4990546;28;20069;-68
2021/06/01 08:01:33;;;;;;;2.85;1.40;;;;;;;28.77;26.73;98915.88;4989642;28;20062;-69
2021/06/01 08:03:58;;;;;;;2.15;1.50;;;;;;;28.83;26.99;98904.25;4987992;28;20030;-68
2021/06/01 08:06:25;;;;;;;4.65;1.77;;;;;;;29.79;26.26;98907.28;4990216;28;20030;-69
2021/06/01 08:08:51;;;;;;;1.73;1.20;;;;;;;29.93;26.37;98904.31;4990017;28;20085;-69
2021/06/01 08:11:16;;;;;;;2.33;1.45;;;;;;;30.71;25.53;98894.97;4990960;28;20030;-67
2021/06/01 08:13:42;;;;;;;2.55;1.38;;;;;;;30.48;25.42;98902.78;4987407;28;20085;-69
2021/06/01 08:16:07;;;;;;;2.60;1.65;;;;;;;32.51;22.89;98898.81;4981430;28;20114;-69
2021/06/01 08:18:37;;;;;;;3.10;1.38;;;;;;;33.41;22.40;98895.34;4989787;28;20056;-68
2021/06/01 08:21:07;;;;;;;4.22;1.48;;;;;;;32.92;21.58;98894.16;4990544;28;20040;-68
2021/06/01 08:23:33;;;;;;;3.15;1.40;;;;;;;31.72;22.43;98900.66;4988471;28;20034;-69
2021/06/01 08:25:58;;;;;;;1.58;1.30;;;;;;;29.56;24.53;98898.22;4989356;28;20595;-69
2021/06/01 08:28:24;;;;;;;3.45;1.40;;;;;;;29.84;24.57;98889.53;4990809;28;20022;-69
2021/06/01 08:30:51;;;;;;;1.95;1.40;;;;;;;29.09;24.36;98881.25;4988938;28;20018;-69
2021/06/01 08:33:16;;;;;;;2.22;1.35;;;;;;;28.62;24.93;98876.16;4986685;28;20049;-69
2021/06/01 08:35:41;;;;;;;2.35;1.48;;;;;;;29.30;25.02;98878.69;4989427;28;20030;-69
2021/06/01 08:38:07;;;;;;;2.35;1.55;;;;;;;30.95;23.59;98872.88;4990170;28;20387;-69
2021/06/01 08:40:32;;;;;;;4.60;1.55;;;;;;;31.53;23.00;98883.53;4989639;28;20026;-70
2021/06/01 08:42:58;;;;;;;2.08;1.30;;;;;;;31.43;22.66;98876.38;4991914;28;20092;-69
2021/06/01 08:45:23;;;;;;;2.63;1.30;;;;;;;31.92;22.43;98882.22;4992977;28;20603;-68
2021/06/01 08:47:49;;;;;;;5.47;1.30;;;;;;;32.92;21.37;98870.94;4990363;28;20026;-69
2021/06/01 08:50:15;;;;;;;1.95;1.23;;;;;;;32.56;21.40;98872.53;4988584;28;20065;-71
2021/06/01 08:52:41;;;;;;;2.83;1.30;;;;;;;32.71;22.15;98869.03;4983900;28;20030;-69
2021/06/01 08:55:09;;;;;;;3.10;1.38;;;;;;;32.85;21.22;98874.28;4989322;28;20042;-70
2021/06/01 08:57:36;;;;;;;2.27;1.00;;;;;;;32.68;21.73;98878.16;4989407;28;20022;-70
2021/06/01 09:00:04;;;;;;;1.35;1.00;;;;;;;32.31;21.08;98866.06;4988731;28;20034;-69
2021/06/01 09:02:30;;;;;;;1.10;1.00;;;;;;;32.74;21.10;98870.34;4976581;28;20133;-69
2021/06/01 09:04:59;;;;;;;4.47;1.27;;;;;;;32.40;21.08;98869.56;4989027;28;20122;-70
2021/06/01 09:07:42;;;;;;;2.08;1.17;;;;;;;31.65;22.04;98867.66;4989780;28;20022;-70
2021/06/01 09:21:15;;;;;;;1.80;1.20;;;;;;;32.25;22.53;98868.25;4983265;28;20117;-69
2021/06/01 09:23:59;;;;;;;3.92;1.38;;;;;;;32.39;21.09;98861.53;4985749;28;20026;-68
2021/06/01 09:26:45;;;;;;;3.05;1.20;;;;;;;32.36;21.39;98863.03;4989648;28;20049;-69
2021/06/01 09:29:10;;;;;;;2.45;0.98;;;;;;;31.11;22.43;98849.94;4988534;28;20633;-69
2021/06/01 09:31:35;;;;;;;2.00;1.20;;;;;;;31.55;22.39;98868.06;4979992;28;20038;-69
2021/06/01 09:34:01;;;;;;;1.80;1.42;;;;;;;31.75;22.17;98854.38;4979155;28;20027;-69
2021/06/01 09:36:27;;;;;;;2.15;1.30;;;;;;;32.42;21.98;98856.03;4989246;28;20601;-69
2021/06/01 09:38:52;;;;;;;5.43;1.30;;;;;;;32.19;21.61;98841.63;4988511;28;20030;-69
2021/06/01 09:41:24;;;;;;;1.90;1.30;;;;;;;30.42;22.50;98831.50;4988122;28;20025;-69
2021/06/01 09:44:08;;;;;;;4.53;1.40;;;;;;;29.21;24.25;98849.97;4970576;28;20035;-69
2021/06/01 09:46:36;;;;;;;1.63;1.38;;;;;;;30.54;23.00;98845.59;4969742;28;20031;-69
2021/06/01 09:49:14;;;;;;;2.08;1.27;;;;;;;30.63;23.23;98826.84;4971778;28;20034;-69
2021/06/01 09:51:47;;;;;;;1.73;1.23;;;;;;;31.16;22.26;98824.56;4979921;28;20038;-70
2021/06/01 09:54:46;;;;;;;3.47;1.25;;;;;;;30.63;23.03;98837.16;4987905;28;20706;-71
2021/06/01 09:57:19;;;;;;;2.05;1.20;;;;;;;32.06;21.37;98820.38;4988432;28;20081;-70
2021/06/01 10:00:18;;;;;;;2.13;1.48;;;;;;;32.32;21.41;98822.88;4981591;28;20026;-70
2021/06/01 10:02:46;;;;;;;2.78;1.35;;;;;;;31.91;20.98;98812.59;4988546;28;20045;-71
2021/06/01 10:05:14;;;;;;;3.93;1.30;;;;;;;32.53;20.79;98814.41;4989265;28;20085;-70
2021/06/01 10:07:40;;;;;;;1.77;1.50;;;;;;;30.39;22.40;98815.44;4974147;28;20106;-71
2021/06/01 10:10:21;;;;;;;3.28;1.23;;;;;;;30.68;21.85;98801.50;4988056;28;20033;-70
2021/06/01 10:12:48;;;;;;;1.65;0.98;;;;;;;30.13;21.96;98799.59;4993060;28;20034;-70
2021/06/01 10:15:16;;;;;;;2.35;1.30;;;;;;;30.96;22.20;98795.44;4995597;28;20075;-70
2021/06/01 10:17:41;;;;;;;1.55;1.20;;;;;;;32.17;21.39;98804.75;4992068;28;20038;-70
2021/06/01 10:20:08;;;;;;;2.17;1.25;;;;;;;33.01;20.56;98789.50;4990839;28;20740;-71
2021/06/01 10:22:34;;;;;;;1.85;1.13;;;;;;;31.09;21.47;98797.16;4990928;28;20037;-70
2021/06/01 10:24:59;;;;;;;2.10;1.15;;;;;;;31.12;22.33;98792.88;4989417;28;20069;-69
2021/06/01 10:27:27;;;;;;;1.98;1.38;;;;;;;30.25;22.32;98785.75;4984305;28;20656;-71
2021/06/01 10:29:52;;;;;;;1.65;1.10;;;;;;;29.81;22.89;98790.63;4990564;28;20026;-69
2021/06/01 10:32:19;;;;;;;2.50;1.20;;;;;;;29.55;22.80;98773.91;4992683;28;20034;-69
2021/06/01 10:34:45;;;;;;;2.15;1.23;;;;;;;29.96;22.64;98780.09;4989835;28;20391;-69
2021/06/01 10:42:45;;;;;;;3.65;1.15;;;;;;;30.13;22.24;98775.28;4992302;28;20399;-70
2021/06/01 10:50:45;;;;;;;3.15;1.40;;;;;;;31.66;21.30;98778.94;4988666;28;20041;-70
2021/06/01 10:53:26;;;;;;;2.35;1.40;;;;;;;32.80;20.42;98776.44;4990590;28;20120;-69
2021/06/01 10:55:55;;;;;;;1.30;1.10;;;;;;;32.05;21.80;98787.97;4990226;28;20034;-70
2021/06/01 10:58:47;;;;;;;2.17;1.00;;;;;;;31.62;21.40;98784.44;4991393;28;20026;-69
2021/06/01 11:04:10;;;;;;;1.15;1.05;;;;;;;31.73;20.85;98772.78;4989739;28;20184;-72
2021/06/01 11:06:48;;;;;;;2.08;1.10;;;;;;;32.01;20.39;98767.41;4975405;28;20038;-72
2021/06/01 11:09:31;;;;;;;1.73;1.00;;;;;;;33.07;20.88;98760.91;4990718;28;20080;-72
2021/06/01 11:12:12;;;;;;;3.05;1.25;;;;;;;33.22;21.04;98752.94;4999968;28;20046;-71
2021/06/01 11:14:37;;;;;;;2.58;1.02;;;;;;;33.81;20.41;98746.63;4991133;28;20550;-72
2021/06/01 11:17:03;;;;;;;2.10;1.00;;;;;;;33.93;20.39;98754.13;4989517;28;20081;-71
2021/06/01 11:19:50;;;;;;;1.50;1.02;;;;;;;34.16;21.01;98751.56;4989975;28;20027;-72
2021/06/01 11:22:34;;;;;;;1.75;1.08;;;;;;;34.21;19.06;98742.88;5001840;28;20116;-72
2021/06/01 11:28:54;;;;;;;1.25;1.00;;;;;;;33.07;20.08;98751.69;4990446;28;20029;-72
2021/06/01 11:33:29;;;;;;;2.67;1.10;;;;;;;34.45;19.50;98741.84;4991107;28;20444;-72
2021/06/01 11:35:59;;;;;;;2.15;1.10;;;;;;;33.76;21.38;98742.06;5009583;23;20129;-69
2021/06/01 11:38:31;;;;;;;2.13;1.23;;;;;;;33.87;20.56;98727.53;4971019;28;20023;-69
2021/06/01 11:41:05;;;;;;;1.40;1.00;;;;;;;33.12;20.41;98732.63;4969273;28;20035;-69
2021/06/01 11:43:31;;;;;;;1.08;0.93;;;;;;;32.75;20.04;98734.69;4966568;28;20022;-69
2021/06/01 11:53:53;;;;;;;4.00;1.10;;;;;;;32.62;20.75;98727.44;4964963;28;20041;-68
2021/06/01 11:57:02;;;;;;;3.22;1.10;;;;;;;32.78;21.80;98716.34;4973066;28;20496;-68
2021/06/01 12:14:23;;;;;;;3.42;1.13;;;;;;;31.86;21.25;98708.13;4893386;29;20040;-68
2021/06/01 12:19:48;;;;;;;2.28;1.38;;;;;;;33.21;21.33;98684.00;4991396;28;20045;-69
2021/06/01 12:22:13;;;;;;;7.40;1.60;;;;;;;33.95;20.84;98684.41;4964630;28;20035;-69
2021/06/01 12:24:41;;;;;;;2.40;1.20;;;;;;;33.41;20.42;98682.19;4968707;28;20385;-69
2021/06/01 12:27:23;;;;;;;4.60;1.02;;;;;;;33.86;20.36;98681.00;4974052;28;20033;-69
2021/06/01 12:32:33;;;;;;;1.40;1.13;;;;;;;34.92;19.71;98667.88;4972165;28;20054;-69
2021/06/01 12:43:01;;;;;;;1.15;0.93;;;;;;;33.36;20.72;98686.84;4967321;28;20155;-69
2021/06/01 12:46:05;;;;;;;3.67;1.42;;;;;;;32.17;20.71;98694.78;4964913;28;20030;-69
2021/06/01 13:19:15;;;;;;;1.38;1.05;;;;;;;32.80;20.73;98653.16;4962131;28;20109;-68
2021/06/01 13:20:37;;;;;;;1.73;1.20;;;;;;;32.85;20.39;98647.31;4966650;28;20058;-67
2021/06/01 13:40:41;;;;;;;1.33;1.10;;;;;;;33.38;20.29;98634.03;4975468;28;20069;-68
2021/06/01 13:46:09;;;;;;;1.85;1.15;;;;;;;33.94;19.80;98621.06;4975663;28;20105;-68
2021/06/01 13:51:33;;;;;;;3.85;1.50;;;;;;;32.20;20.60;98626.88;4971161;28;20503;-68